createdAt,value
2023-02-11T00:00:19.994Z,36.70
2023-02-11T00:02:47.992Z,38.20
2023-02-11T00:05:15.078Z,37.95
2023-02-11T00:07:41.664Z,36.97
2023-02-11T00:10:08.527Z,36.40
2023-02-11T00:12:36.294Z,36.75
2023-02-11T00:15:03.065Z,35.22
2023-02-11T00:17:29.390Z,38.17
2023-02-11T00:19:55.740Z,35.75
2023-02-11T00:22:22.024Z,39.75
2023-02-11T00:24:48.462Z,32.53
2023-02-11T00:27:14.845Z,35.03
2023-02-11T00:29:41.149Z,41.85
2023-02-11T00:32:07.642Z,36.58
2023-02-11T00:34:35.003Z,36.90
2023-02-11T00:37:01.531Z,35.58
2023-02-11T00:39:28.157Z,39.72
2023-02-11T00:41:54.496Z,38.42
2023-02-11T00:44:20.836Z,31.77
2023-02-11T00:46:47.387Z,36.40
2023-02-11T00:49:14.094Z,38.20
2023-02-11T00:51:40.404Z,42.33
2023-02-11T00:54:07.339Z,35.22
2023-02-11T00:56:33.683Z,38.35
2023-02-11T00:59:00.062Z,39.22
2023-02-11T01:01:26.462Z,37.13
2023-02-11T01:03:52.855Z,38.03
2023-02-11T01:06:19.308Z,36.78
2023-02-11T01:08:45.660Z,42.90
2023-02-11T01:11:15.468Z,33.15
2023-02-11T01:13:41.800Z,33.33
2023-02-11T01:16:09.427Z,33.22
2023-02-11T01:18:36.703Z,35.38
2023-02-11T01:21:03.679Z,35.80
2023-02-11T01:23:30.020Z,37.45
2023-02-11T01:25:57.150Z,32.60
2023-02-11T01:28:26.434Z,34.92
2023-02-11T01:30:53.394Z,36.28
2023-02-11T01:33:20.694Z,38.00
2023-02-11T01:35:47.216Z,31.27
2023-02-11T01:38:21.783Z,38.08
2023-02-11T01:40:52.467Z,38.17
2023-02-11T01:43:19.375Z,38.58
2023-02-11T01:45:45.620Z,38.97
2023-02-11T01:48:14.750Z,36.45
2023-02-11T01:50:42.900Z,37.03
2023-02-11T01:53:10.414Z,31.85
2023-02-11T01:58:04.540Z,34.45
2023-02-11T02:00:35.715Z,38.78
2023-02-11T02:03:11.356Z,36.80
2023-02-11T02:06:04.036Z,33.28
2023-02-11T02:08:57.239Z,32.65
2023-02-11T02:11:23.531Z,35.92
2023-02-11T02:13:49.867Z,36.38
2023-02-11T02:16:19.580Z,36.15
2023-02-11T02:19:23.059Z,35.20
2023-02-11T02:22:10.645Z,37.50
2023-02-11T02:25:12.798Z,34.83
2023-02-11T02:27:47.917Z,32.63
2023-02-11T02:30:42.264Z,33.85
2023-02-11T02:33:35.036Z,35.40
2023-02-11T02:36:11.145Z,34.80
2023-02-11T02:38:40.789Z,37.10
2023-02-11T02:41:08.813Z,31.65
2023-02-11T02:43:37.622Z,31.30
2023-02-11T02:46:18.030Z,36.63
2023-02-11T02:48:45.334Z,37.03
2023-02-11T02:51:34.944Z,37.30
2023-02-11T02:54:04.284Z,37.17
2023-02-11T02:57:07.711Z,35.85
2023-02-11T02:59:58.529Z,37.20
2023-02-11T03:02:33.455Z,40.80
2023-02-11T03:05:16.681Z,39.25
2023-02-11T03:08:14.904Z,34.22
2023-02-11T03:10:47.983Z,37.10
2023-02-11T03:13:18.696Z,35.80
2023-02-11T03:15:51.033Z,32.35
2023-02-11T03:18:20.791Z,39.38
2023-02-11T03:20:50.444Z,39.60
2023-02-11T03:23:23.672Z,32.65
2023-02-11T03:26:05.365Z,35.75
2023-02-11T03:28:51.249Z,37.03
2023-02-11T03:31:33.980Z,40.78
2023-02-11T03:34:32.481Z,37.60
2023-02-11T03:37:13.690Z,36.40
2023-02-11T03:39:47.495Z,35.03
2023-02-11T03:42:15.829Z,39.08
2023-02-11T03:44:49.676Z,39.88
2023-02-11T03:47:20.938Z,42.17
2023-02-11T03:49:51.687Z,30.27
2023-02-11T03:52:21.810Z,38.90
2023-02-11T03:54:53.173Z,35.58
2023-02-11T03:57:19.478Z,38.65
2023-02-11T03:59:53.048Z,39.13
2023-02-11T04:04:46.899Z,36.53
2023-02-11T04:07:13.303Z,37.33
2023-02-11T04:09:39.769Z,42.85
2023-02-11T04:12:06.444Z,45.20
2023-02-11T04:14:32.787Z,35.53
2023-02-11T04:16:59.095Z,41.40
2023-02-11T04:19:25.374Z,39.67
2023-02-11T04:21:51.719Z,39.65
2023-02-11T04:24:18.009Z,38.65
2023-02-11T04:26:44.295Z,40.72
2023-02-11T04:29:10.596Z,38.30
2023-02-11T04:31:36.964Z,34.80
2023-02-11T04:34:03.291Z,38.28
2023-02-11T04:36:29.711Z,38.97
2023-02-11T04:38:55.995Z,39.85
2023-02-11T04:41:22.350Z,43.30
2023-02-11T04:43:48.689Z,39.30
2023-02-11T04:46:15.038Z,38.53
2023-02-11T04:48:41.438Z,41.47
2023-02-11T04:51:07.743Z,39.47
2023-02-11T04:53:34.091Z,42.78
2023-02-11T04:56:00.438Z,41.78
2023-02-11T04:58:26.767Z,40.10
2023-02-11T05:00:53.281Z,41.05
2023-02-11T05:03:19.666Z,41.38
2023-02-11T05:05:45.971Z,41.60
2023-02-11T05:08:13.046Z,46.78
2023-02-11T05:10:39.346Z,47.60
2023-02-11T05:13:05.835Z,55.05
2023-02-11T05:15:32.251Z,53.42
2023-02-11T05:17:58.557Z,45.75
2023-02-11T05:20:24.927Z,49.25
2023-02-11T05:22:51.209Z,50.38
2023-02-11T05:25:17.632Z,47.47
2023-02-11T05:27:43.953Z,46.25
2023-02-11T05:30:11.320Z,53.58
2023-02-11T05:32:37.655Z,53.20
2023-02-11T05:35:04.211Z,46.75
2023-02-11T05:37:30.666Z,50.33
2023-02-11T05:39:57.016Z,56.70
2023-02-11T05:42:23.325Z,47.97
2023-02-11T05:44:50.674Z,58.00
2023-02-11T05:49:43.300Z,54.65
2023-02-11T05:52:09.570Z,50.33
2023-02-11T05:54:35.889Z,54.08
2023-02-11T05:57:02.179Z,52.72
2023-02-11T05:59:28.487Z,51.90
2023-02-11T06:01:54.811Z,55.72
2023-02-11T06:04:21.130Z,56.33
2023-02-11T06:06:47.439Z,53.55
2023-02-11T06:09:13.760Z,56.70
2023-02-11T06:11:40.121Z,51.65
2023-02-11T06:14:06.485Z,55.60
2023-02-11T06:16:32.780Z,55.55
2023-02-11T06:18:59.111Z,55.30
2023-02-11T06:21:36.349Z,60.38
2023-02-11T06:24:06.844Z,67.30
2023-02-11T06:26:33.133Z,49.70
2023-02-11T06:29:00.829Z,55.30
2023-02-11T06:31:28.331Z,56.42
2023-02-11T06:33:54.735Z,60.35
2023-02-11T06:36:22.300Z,58.10
2023-02-11T06:38:49.398Z,60.08
2023-02-11T06:41:17.965Z,54.28
2023-02-11T06:43:44.258Z,59.25
2023-02-11T06:46:10.654Z,65.32
2023-02-11T06:48:37.312Z,65.32
2023-02-11T06:51:05.433Z,70.47
2023-02-11T06:53:34.428Z,63.28
2023-02-11T06:56:05.469Z,69.70
2023-02-11T06:58:32.532Z,60.85
2023-02-11T07:00:59.007Z,65.40
2023-02-11T07:03:26.255Z,70.65
2023-02-11T07:05:52.925Z,65.30
2023-02-11T07:08:19.325Z,70.68
2023-02-11T07:10:45.589Z,65.35
2023-02-11T07:13:11.880Z,62.40
2023-02-11T07:15:38.152Z,62.53
2023-02-11T07:18:04.516Z,57.85
2023-02-11T07:20:30.805Z,61.65
2023-02-11T07:22:57.124Z,63.88
2023-02-11T07:25:23.405Z,62.22
2023-02-11T07:27:49.698Z,64.13
2023-02-11T07:30:16.023Z,66.10
2023-02-11T07:32:42.358Z,64.22
2023-02-11T07:35:08.668Z,56.00
2023-02-11T07:37:35.489Z,65.95
2023-02-11T07:40:01.919Z,62.58
2023-02-11T07:42:28.213Z,67.75
2023-02-11T07:44:54.500Z,66.10
2023-02-11T07:47:20.820Z,63.55
2023-02-11T07:49:47.132Z,59.85
2023-02-11T07:52:13.407Z,62.70
2023-02-11T07:54:39.850Z,61.47
2023-02-11T07:57:06.188Z,67.82
2023-02-11T07:59:32.522Z,60.97
2023-02-11T08:01:58.853Z,59.53
2023-02-11T08:04:25.198Z,66.63
2023-02-11T08:06:51.563Z,57.63
2023-02-11T08:09:18.387Z,65.28
2023-02-11T08:11:44.935Z,60.25
2023-02-11T08:14:11.815Z,59.25
2023-02-11T08:16:38.547Z,63.67
2023-02-11T08:19:16.123Z,60.42
2023-02-11T08:21:43.447Z,71.68
2023-02-11T08:24:10.234Z,58.60
2023-02-11T08:26:37.383Z,68.25
2023-02-11T08:29:09.057Z,58.50
2023-02-11T08:31:38.194Z,64.20
2023-02-11T08:34:04.830Z,56.17
2023-02-11T08:36:35.825Z,59.42
2023-02-11T08:39:18.020Z,62.30
2023-02-11T08:41:46.760Z,60.63
2023-02-11T08:44:13.183Z,60.15
2023-02-11T08:46:39.486Z,64.38
2023-02-11T08:49:05.808Z,61.25
2023-02-11T08:51:32.364Z,64.88
2023-02-11T08:53:59.586Z,57.53
2023-02-11T08:56:26.482Z,63.30
2023-02-11T08:58:53.813Z,62.10
2023-02-11T09:03:54.425Z,47.47
2023-02-11T09:06:21.403Z,61.55
2023-02-11T09:08:50.775Z,56.83
2023-02-11T09:11:19.573Z,58.58
2023-02-11T09:13:46.424Z,59.03
2023-02-11T09:16:35.858Z,57.85
2023-02-11T09:19:04.189Z,56.03
2023-02-11T09:21:30.699Z,59.75
2023-02-11T09:23:57.311Z,56.38
2023-02-11T09:26:29.794Z,59.63
2023-02-11T09:28:56.804Z,55.70
2023-02-11T09:31:25.824Z,52.30
2023-02-11T09:33:55.178Z,59.15
2023-02-11T09:36:25.068Z,57.30
2023-02-11T09:38:52.167Z,53.45
2023-02-11T09:41:24.592Z,62.08
2023-02-11T09:43:54.432Z,59.80
2023-02-11T09:46:21.727Z,48.17
2023-02-11T09:51:32.157Z,53.25
2023-02-11T09:54:07.771Z,54.30
2023-02-11T09:56:34.074Z,63.50
2023-02-11T09:59:00.409Z,53.30
2023-02-11T10:01:38.570Z,52.75
2023-02-11T10:04:37.309Z,55.03
2023-02-11T10:07:15.436Z,54.33
2023-02-11T10:10:20.074Z,64.53
2023-02-11T10:13:01.467Z,56.42
2023-02-11T10:15:50.995Z,59.38
2023-02-11T10:18:56.431Z,65.70
2023-02-11T10:21:50.553Z,59.58
2023-02-11T10:24:17.521Z,54.92
2023-02-11T10:26:45.101Z,56.40
2023-02-11T10:29:24.846Z,54.58
2023-02-11T10:31:51.813Z,56.28
2023-02-11T10:34:18.834Z,51.95
2023-02-11T10:36:47.228Z,52.92
2023-02-11T10:39:17.917Z,53.22
2023-02-11T10:41:47.865Z,57.08
2023-02-11T10:44:31.675Z,58.58
2023-02-11T10:47:04.187Z,59.40
2023-02-11T10:49:48.332Z,54.53
2023-02-11T10:52:17.351Z,49.38
2023-02-11T10:54:58.905Z,52.38
2023-02-11T10:57:36.985Z,55.42
2023-02-11T11:00:20.022Z,48.20
2023-02-11T11:02:54.266Z,51.90
2023-02-11T11:05:28.523Z,62.55
2023-02-11T11:08:08.831Z,45.70
2023-02-11T11:10:41.284Z,52.00
2023-02-11T11:13:24.396Z,57.28
2023-02-11T11:16:12.594Z,58.65
2023-02-11T11:18:45.701Z,46.92
2023-02-11T11:21:19.369Z,57.03
2023-02-11T11:24:04.348Z,49.15
2023-02-11T11:26:54.746Z,56.42
2023-02-11T11:29:26.657Z,51.03
2023-02-11T11:32:03.419Z,55.50
2023-02-11T11:34:36.743Z,43.85
2023-02-11T11:39:36.803Z,50.10
2023-02-11T11:42:24.560Z,49.42
2023-02-11T11:45:02.916Z,45.95
2023-02-11T11:47:39.250Z,46.40
2023-02-11T11:50:21.275Z,43.50
2023-02-11T11:52:54.241Z,49.00
2023-02-11T11:55:24.756Z,49.65
2023-02-11T11:57:51.147Z,46.40
2023-02-11T12:00:26.520Z,47.25
2023-02-11T12:03:02.019Z,43.55
2023-02-11T12:05:42.980Z,40.92
2023-02-11T12:08:40.232Z,44.00
2023-02-11T12:11:23.393Z,46.38
2023-02-11T12:14:16.758Z,40.95
2023-02-11T12:17:01.263Z,43.10
2023-02-11T12:19:55.150Z,45.25
2023-02-11T12:22:58.716Z,45.00
2023-02-11T12:25:47.081Z,38.72
2023-02-11T12:28:22.332Z,38.33
2023-02-11T12:31:03.858Z,40.25
2023-02-11T12:33:39.148Z,44.13
2023-02-11T12:36:13.660Z,44.72
2023-02-11T12:38:54.972Z,39.55
2023-02-11T12:41:44.150Z,41.17
2023-02-11T12:44:27.067Z,39.13
2023-02-11T12:47:23.002Z,46.15
2023-02-11T12:49:52.349Z,41.33
2023-02-11T12:53:03.247Z,36.45
2023-02-11T12:55:35.524Z,39.60
2023-02-11T12:58:02.032Z,36.63
2023-02-11T13:00:55.244Z,40.10
2023-02-11T13:03:28.448Z,35.92
2023-02-11T13:06:09.825Z,31.88
2023-02-11T13:08:44.222Z,35.60
2023-02-11T13:11:24.319Z,36.65
2023-02-11T13:14:35.171Z,44.75
2023-02-11T13:17:09.643Z,25.85
2023-02-11T13:19:43.702Z,32.80
2023-02-11T13:22:31.133Z,32.35
2023-02-11T13:25:25.348Z,28.55
2023-02-11T13:28:07.104Z,32.45
2023-02-11T13:30:35.621Z,34.25
2023-02-11T13:33:30.634Z,33.00
2023-02-11T13:35:56.919Z,28.90
2023-02-11T13:38:26.577Z,35.50
2023-02-11T13:41:04.959Z,41.60
2023-02-11T13:43:33.593Z,31.65
2023-02-11T13:46:05.756Z,27.95
2023-02-11T13:48:37.888Z,31.70
2023-02-11T13:51:08.869Z,33.45
2023-02-11T13:53:51.476Z,29.05
2023-02-11T13:56:35.593Z,31.25
2023-02-11T13:59:06.077Z,27.27
2023-02-11T14:01:48.723Z,30.95
2023-02-11T14:04:20.618Z,25.17
2023-02-11T14:07:25.186Z,29.48
2023-02-11T14:09:51.513Z,31.70
2023-02-11T14:12:31.665Z,26.55
2023-02-11T14:15:03.357Z,30.90
2023-02-11T14:17:33.233Z,30.60
2023-02-11T14:20:01.941Z,29.00
2023-02-11T14:22:40.540Z,28.25
2023-02-11T14:25:20.091Z,28.70
2023-02-11T14:28:11.452Z,27.67
2023-02-11T14:30:56.577Z,29.67
2023-02-11T14:33:39.608Z,24.02
2023-02-11T14:36:39.663Z,22.75
2023-02-11T14:39:37.220Z,24.38
2023-02-11T14:44:32.853Z,19.67
2023-02-11T14:46:59.697Z,23.92
2023-02-11T14:49:35.416Z,22.05
2023-02-11T14:52:27.389Z,22.27
2023-02-11T14:55:17.886Z,19.92
2023-02-11T14:57:44.301Z,20.73
2023-02-11T15:00:21.749Z,19.15
2023-02-11T15:02:48.532Z,19.92
2023-02-11T15:05:26.390Z,21.33
2023-02-11T15:07:55.922Z,21.17
2023-02-11T15:10:37.958Z,20.25
2023-02-11T15:13:05.034Z,22.05
2023-02-11T15:15:32.751Z,20.98
2023-02-11T15:18:02.226Z,20.95
2023-02-11T15:20:31.238Z,25.60
2023-02-11T15:23:01.139Z,21.88
2023-02-11T15:25:28.130Z,19.17
2023-02-11T15:27:57.148Z,23.65
2023-02-11T15:30:23.489Z,22.30
2023-02-11T15:32:52.210Z,24.58
2023-02-11T15:35:18.751Z,19.92
2023-02-11T15:37:45.514Z,19.45
2023-02-11T15:40:16.758Z,18.60
2023-02-11T15:42:58.659Z,18.75
2023-02-11T15:45:33.082Z,18.80
2023-02-11T15:48:18.957Z,20.70
2023-02-11T15:50:57.565Z,19.23
2023-02-11T15:53:27.086Z,20.08
2023-02-11T15:56:14.876Z,17.80
2023-02-11T15:58:44.213Z,18.08
2023-02-11T16:01:11.865Z,17.15
2023-02-11T16:03:38.890Z,17.33
2023-02-11T16:06:20.076Z,39.47
2023-02-11T16:09:06.374Z,22.55
2023-02-11T16:11:35.935Z,16.00
2023-02-11T16:14:20.111Z,80.15
2023-02-11T16:16:49.015Z,17.23
2023-02-11T16:19:19.238Z,23.52
2023-02-11T16:21:46.222Z,23.10
2023-02-11T16:24:20.662Z,17.17
2023-02-11T16:26:50.261Z,19.00
2023-02-11T16:29:19.831Z,18.15
2023-02-11T16:31:47.895Z,26.00
2023-02-11T16:34:17.468Z,20.23
2023-02-11T16:36:44.504Z,28.73
2023-02-11T16:39:11.565Z,17.20
2023-02-11T16:41:37.891Z,40.45
2023-02-11T16:44:04.538Z,31.50
2023-02-11T16:46:32.193Z,28.95
2023-02-11T16:49:07.654Z,18.98
2023-02-11T16:51:34.078Z,21.52
2023-02-11T16:54:00.389Z,23.98
2023-02-11T16:56:26.669Z,24.67
2023-02-11T16:58:52.983Z,19.60
2023-02-11T17:01:19.414Z,15.55
2023-02-11T17:03:45.784Z,16.23
2023-02-11T17:06:13.345Z,14.55
2023-02-11T17:08:42.996Z,17.05
2023-02-11T17:11:09.275Z,13.45
2023-02-11T17:13:35.658Z,19.73
2023-02-11T17:16:02.223Z,19.70
2023-02-11T17:18:28.632Z,20.40
2023-02-11T17:20:54.956Z,15.07
2023-02-11T17:23:21.303Z,51.63
2023-02-11T17:25:54.990Z,23.00
2023-02-11T17:28:21.317Z,31.73
2023-02-11T17:30:47.660Z,33.58
2023-02-11T17:33:13.970Z,51.33
2023-02-11T17:35:40.329Z,28.75
2023-02-11T17:38:06.632Z,15.38
2023-02-11T17:40:32.951Z,14.18
2023-02-11T17:42:59.224Z,14.18
2023-02-11T17:45:25.607Z,13.55
2023-02-11T17:47:54.593Z,12.45
2023-02-11T17:50:21.061Z,13.45
2023-02-11T17:52:47.382Z,23.40
2023-02-11T17:55:13.841Z,15.38
2023-02-11T17:57:40.185Z,12.68
2023-02-11T18:00:08.474Z,13.32
2023-02-11T18:02:34.802Z,19.33
2023-02-11T18:05:01.220Z,16.13
2023-02-11T18:07:27.671Z,15.40
2023-02-11T18:09:53.989Z,12.65
2023-02-11T18:12:20.315Z,13.68
2023-02-11T18:14:46.623Z,18.27
2023-02-11T18:17:12.957Z,16.33
2023-02-11T18:19:39.273Z,13.80
2023-02-11T18:22:05.645Z,16.38
2023-02-11T18:24:31.990Z,13.85
2023-02-11T18:26:58.373Z,14.32
2023-02-11T18:29:24.947Z,15.02
2023-02-11T18:31:54.654Z,13.32
2023-02-11T18:34:20.990Z,12.25
2023-02-11T18:36:47.311Z,23.73
2023-02-11T18:39:13.594Z,17.25
2023-02-11T18:41:40.087Z,12.50
2023-02-11T18:44:06.757Z,18.02
2023-02-11T18:46:33.722Z,24.85
2023-02-11T18:49:00.097Z,18.38
2023-02-11T18:51:26.541Z,23.75
2023-02-11T18:53:52.828Z,14.90
2023-02-11T18:56:21.923Z,26.63
2023-02-11T18:58:49.102Z,16.08
2023-02-11T19:01:21.251Z,16.42
2023-02-11T19:03:47.616Z,26.92
2023-02-11T19:06:19.009Z,16.10
2023-02-11T19:08:46.339Z,14.45
2023-02-11T19:11:13.318Z,20.27
2023-02-11T19:13:42.495Z,19.73
2023-02-11T19:16:11.353Z,11.18
2023-02-11T19:18:38.022Z,11.95
2023-02-11T19:21:09.734Z,40.72
2023-02-11T19:23:36.656Z,17.10
2023-02-11T19:26:03.396Z,10.35
2023-02-11T19:28:31.507Z,12.43
2023-02-11T19:30:58.017Z,11.05
2023-02-11T19:33:24.432Z,13.82
2023-02-11T19:35:51.071Z,12.13
2023-02-11T19:38:17.607Z,10.80
2023-02-11T19:40:43.923Z,13.70
2023-02-11T19:43:10.200Z,14.07
2023-02-11T19:45:39.554Z,15.90
2023-02-11T19:48:05.891Z,12.52
2023-02-11T19:50:32.182Z,17.95
2023-02-11T19:52:58.518Z,27.20
2023-02-11T19:55:26.042Z,23.23
2023-02-11T19:57:52.358Z,14.25
2023-02-11T20:00:19.103Z,13.77
2023-02-11T20:02:45.411Z,16.33
2023-02-11T20:05:11.725Z,13.40
2023-02-11T20:07:38.109Z,13.70
2023-02-11T20:10:05.236Z,11.18
2023-02-11T20:12:31.563Z,10.77
2023-02-11T20:14:58.116Z,11.15
2023-02-11T20:17:27.644Z,10.85
2023-02-11T20:19:53.920Z,13.07
2023-02-11T20:22:20.256Z,13.15
2023-02-11T20:24:49.316Z,11.13
2023-02-11T20:27:17.304Z,12.90
2023-02-11T20:29:44.715Z,12.45
2023-02-11T20:32:11.666Z,12.27
2023-02-11T20:34:38.038Z,12.50
2023-02-11T20:37:04.411Z,11.80
2023-02-11T20:39:30.723Z,12.45
2023-02-11T20:41:57.090Z,13.18
2023-02-11T20:44:24.082Z,12.10
2023-02-11T20:46:51.717Z,13.32
2023-02-11T20:49:24.321Z,11.48
2023-02-11T20:51:50.929Z,13.10
2023-02-11T20:54:19.655Z,12.52
2023-02-11T20:56:48.248Z,11.30
2023-02-11T20:59:15.378Z,14.10
2023-02-11T21:01:44.835Z,14.35
2023-02-11T21:04:17.640Z,16.02
2023-02-11T21:06:46.509Z,13.10
2023-02-11T21:09:15.631Z,12.27
2023-02-11T21:11:42.761Z,16.05
2023-02-11T21:14:09.700Z,16.60
2023-02-11T21:16:35.989Z,15.73
2023-02-11T21:19:02.385Z,13.90
2023-02-11T21:21:29.315Z,12.40
2023-02-11T21:23:55.825Z,13.68
2023-02-11T21:26:22.887Z,13.73
2023-02-11T21:28:49.238Z,13.43
2023-02-11T21:31:25.128Z,14.60
2023-02-11T21:33:52.373Z,12.82
2023-02-11T21:36:18.938Z,12.88
2023-02-11T21:38:45.246Z,11.93
2023-02-11T21:41:12.146Z,13.07
2023-02-11T21:43:38.628Z,14.32
2023-02-11T21:46:13.466Z,13.30
2023-02-11T21:48:40.203Z,13.73
2023-02-11T21:51:09.184Z,13.30
2023-02-11T21:53:35.733Z,11.15
2023-02-11T21:56:07.833Z,16.17
2023-02-11T21:58:35.206Z,13.35
2023-02-11T22:01:01.749Z,14.27
2023-02-11T22:03:28.132Z,13.48
2023-02-11T22:05:54.689Z,16.10
2023-02-11T22:08:21.205Z,15.50
2023-02-11T22:10:47.533Z,16.63
2023-02-11T22:13:13.840Z,17.25
2023-02-11T22:15:40.180Z,20.08
2023-02-11T22:18:06.525Z,12.35
2023-02-11T22:20:32.891Z,11.82
2023-02-11T22:22:59.215Z,11.95
2023-02-11T22:25:25.538Z,11.60
2023-02-11T22:27:51.853Z,10.93
2023-02-11T22:30:18.282Z,12.65
2023-02-11T22:32:44.620Z,17.38
2023-02-11T22:35:10.950Z,16.63
2023-02-11T22:37:37.311Z,12.57
2023-02-11T22:40:03.817Z,17.08
2023-02-11T22:42:30.149Z,13.52
2023-02-11T22:44:56.482Z,12.73
2023-02-11T22:47:22.818Z,14.35
2023-02-11T22:49:49.140Z,15.32
2023-02-11T22:52:15.432Z,16.40
2023-02-11T22:54:41.757Z,11.73
2023-02-11T22:57:08.071Z,13.05
2023-02-11T22:59:37.475Z,9.32
2023-02-11T23:02:03.931Z,15.60
2023-02-11T23:04:30.508Z,12.23
2023-02-11T23:06:56.847Z,11.55
2023-02-11T23:09:26.240Z,14.75
2023-02-11T23:11:52.591Z,12.55
2023-02-11T23:14:18.950Z,14.48
2023-02-11T23:16:45.281Z,15.25
2023-02-11T23:19:11.682Z,14.35
2023-02-11T23:21:39.011Z,15.93
2023-02-11T23:26:35.199Z,15.63
2023-02-11T23:29:01.525Z,12.25
2023-02-11T23:31:33.503Z,12.13
2023-02-11T23:34:01.012Z,14.13
2023-02-11T23:36:27.930Z,17.63
2023-02-11T23:38:54.329Z,13.73
2023-02-11T23:41:21.489Z,10.77
2023-02-11T23:43:56.150Z,12.98
2023-02-11T23:46:24.661Z,13.30
2023-02-11T23:48:51.979Z,14.57
2023-02-11T23:51:19.028Z,12.88
2023-02-11T23:56:17.596Z,14.57
2023-02-11T23:58:43.947Z,14.57
